Time;durP1;ratioP1;P1;durP2;ratioP2;P2;SDS_P1;SDS_P2;PMS_P1;PMS_P2;Temp;Humidity;BMP_temperature;BMP_pressure;BME280_temperature;BME280_humidity;BME280_pressure;Samples;Min_cycle;Max_cycle;Signal;HPM_P1;HPM_P2
2022/03/17 00:04:09;;;;;;;41.67;24.27;;;11.30;91.90;;;;;;12917972;23;20228;-81
2022/03/17 00:09:11;;;;;;;19.07;13.90;;;11.50;91.20;;;;;;12915188;23;20198;-81
2022/03/17 00:14:14;;;;;;;16.50;12.87;;;11.60;91.40;;;;;;12914731;23;20510;-81
2022/03/17 00:19:16;;;;;;;20.43;14.67;;;12.20;90.40;;;;;;12916612;23;20612;-81
2022/03/17 00:24:19;;;;;;;19.20;14.30;;;12.30;89.70;;;;;;12916975;23;20216;-81
2022/03/17 00:29:21;;;;;;;54.93;31.83;;;12.10;89.70;;;;;;12915176;23;20236;-81
2022/03/17 00:34:24;;;;;;;18.33;14.17;;;12.10;84.90;;;;;;12916337;23;20217;-81
2022/03/17 00:39:27;;;;;;;27.73;18.77;;;11.50;90.30;;;;;;12889981;23;20179;-81
2022/03/17 00:44:29;;;;;;;20.20;13.60;;;11.70;90.10;;;;;;12889144;23;20207;-81
2022/03/17 00:49:32;;;;;;;40.20;25.60;;;12.00;89.20;;;;;;12915706;23;20572;-81
2022/03/17 00:54:34;;;;;;;38.53;23.43;;;12.60;84.70;;;;;;12916770;23;20212;-81
2022/03/17 00:59:37;;;;;;;30.13;18.60;;;12.40;85.40;;;;;;12914464;23;20701;-81
2022/03/17 01:04:40;;;;;;;25.63;17.83;;;12.60;85.40;;;;;;12912640;23;20171;-81
2022/03/17 01:09:42;;;;;;;47.37;29.13;;;12.60;85.00;;;;;;12886476;23;20194;-81
2022/03/17 01:14:47;;;;;;;27.10;17.87;;;11.20;85.90;;;;;;12911605;23;20217;-81
2022/03/17 01:19:49;;;;;;;23.00;15.77;;;11.70;88.90;;;;;;12916812;23;20644;-81
2022/03/17 01:24:52;;;;;;;46.30;29.50;;;11.90;88.30;;;;;;12934805;23;20216;-81
2022/03/17 01:29:55;;;;;;;34.10;22.13;;;10.60;84.10;;;;;;12916309;23;20194;-81
2022/03/17 01:34:57;;;;;;;65.20;37.60;;;9.80;92.80;;;;;;12915292;23;20175;-81
2022/03/17 01:40:00;;;;;;;33.73;21.37;;;11.20;88.90;;;;;;12915163;23;20178;-81
2022/03/17 01:45:04;;;;;;;45.33;29.03;;;12.30;88.20;;;;;;12914035;23;20233;-81
2022/03/17 01:50:16;;;;;;;25.90;17.57;;;12.30;86.00;;;;;;12914786;23;20190;-81
2022/03/17 01:55:19;;;;;;;52.67;31.83;;;13.10;83.60;;;;;;12933288;23;20208;-81
2022/03/17 02:00:22;;;;;;;41.53;25.57;;;12.10;78.10;;;;;;12916504;23;20174;-81
2022/03/17 02:05:26;;;;;;;23.53;16.70;;;11.80;84.50;;;;;;12914976;23;20196;-81
2022/03/17 02:13:08;;;;;;;28.27;20.57;;;11.90;86.40;;;;;;12917951;23;20197;-81
2022/03/17 02:15:55;;;;;;;19.23;14.73;;;12.10;86.30;;;;;;12918173;23;20178;-81
2022/03/17 02:20:59;;;;;;;24.63;16.83;;;12.50;85.70;;;;;;12918639;23;20201;-81
2022/03/17 02:26:05;;;;;;;26.80;17.37;;;12.60;83.60;;;;;;12919131;23;20220;-81
2022/03/17 02:31:07;;;;;;;21.00;15.43;;;11.90;85.70;;;;;;12918079;23;20661;-81
2022/03/17 02:36:10;;;;;;;18.17;13.47;;;11.80;87.00;;;;;;12938749;23;20220;-81
2022/03/17 02:41:21;;;;;;;30.97;22.13;;;12.60;85.00;;;;;;12918833;23;20179;-81
2022/03/17 02:46:25;;;;;;;17.30;13.33;;;12.90;81.00;;;;;;12923015;23;20244;-81
2022/03/17 02:51:28;;;;;;;57.50;36.03;;;12.80;83.10;;;;;;12918426;23;20503;-81
2022/03/17 02:56:32;;;;;;;47.50;28.57;;;12.50;77.10;;;;;;12920127;23;20163;-81
2022/03/17 03:01:34;;;;;;;21.53;15.03;;;12.40;82.10;;;;;;12927617;23;20224;-81
2022/03/17 03:06:37;;;;;;;18.20;13.90;;;13.00;82.10;;;;;;12920314;23;20170;-81
2022/03/17 03:11:40;;;;;;;18.03;13.63;;;13.10;81.40;;;;;;12919897;23;20190;-80
2022/03/17 03:16:43;;;;;;;22.37;16.90;;;13.40;80.60;;;;;;12919736;23;20170;-81
2022/03/17 03:21:46;;;;;;;58.03;37.47;;;13.60;78.40;;;;;;12917591;23;20178;-81
2022/03/17 03:26:48;;;;;;;22.10;15.37;;;13.00;73.10;;;;;;12918864;23;20174;-81
2022/03/17 03:31:52;;;;;;;37.57;23.30;;;13.10;79.90;;;;;;12917916;23;20528;-81
2022/03/17 03:42:16;;;;;;;22.43;16.63;;;13.10;78.90;;;;;;12938144;23;20228;-81
2022/03/17 03:47:19;;;;;;;20.87;14.17;;;13.30;78.20;;;;;;12917321;23;20178;-81
2022/03/17 03:52:21;;;;;;;40.60;26.00;;;13.80;77.80;;;;;;12918527;23;20190;-81
2022/03/17 03:57:24;;;;;;;21.17;15.77;;;13.30;76.80;;;;;;12918700;23;20217;-81
2022/03/17 04:02:27;;;;;;;53.37;32.03;;;13.20;79.00;;;;;;12922881;23;20174;-81
2022/03/17 04:07:29;;;;;;;34.10;21.27;;;13.10;76.60;;;;;;12918653;23;20175;-81
2022/03/17 04:12:32;;;;;;;28.80;19.67;;;12.70;79.90;;;;;;12915903;23;20194;-81
2022/03/17 04:17:35;;;;;;;17.83;14.60;;;13.40;78.80;;;;;;12917980;23;20170;-80
2022/03/17 04:22:38;;;;;;;49.50;31.63;;;13.70;77.60;;;;;;12917064;23;20174;-81
2022/03/17 04:27:41;;;;;;;29.50;20.03;;;13.60;73.70;;;;;;12917793;23;20170;-81
2022/03/17 04:32:44;;;;;;;27.67;17.90;;;13.10;77.10;;;;;;12920699;23;20213;-81
2022/03/17 04:37:47;;;;;;;33.27;22.60;;;12.50;79.80;;;;;;12936770;23;20225;-81
2022/03/17 04:42:49;;;;;;;39.97;25.93;;;12.80;79.50;;;;;;12915430;23;20594;-81
2022/03/17 04:47:52;;;;;;;19.27;14.77;;;12.60;78.50;;;;;;12920563;23;20200;-81
2022/03/17 04:58:16;;;;;;;20.40;15.23;;;13.50;77.90;;;;;;12934591;23;20236;-81
2022/03/17 05:03:19;;;;;;;21.27;16.90;;;13.80;76.60;;;;;;12889488;23;20229;-81
2022/03/17 05:08:22;;;;;;;21.80;15.20;;;13.80;76.10;;;;;;12916281;22;20637;-81
2022/03/17 05:13:25;;;;;;;47.27;26.37;;;13.90;76.10;;;;;;12916892;23;20190;-80
2022/03/17 05:18:27;;;;;;;20.90;15.60;;;13.70;74.70;;;;;;12917083;23;20166;-81
2022/03/17 05:23:31;;;;;;;42.07;25.27;;;13.60;76.20;;;;;;12916505;23;20171;-81
2022/03/17 05:28:34;;;;;;;19.80;15.50;;;13.50;75.40;;;;;;12916919;23;20170;-81
2022/03/17 05:33:36;;;;;;;27.97;20.13;;;13.50;76.80;;;;;;12916288;23;20170;-81
2022/03/17 05:38:39;;;;;;;20.13;15.77;;;13.40;76.10;;;;;;12914735;23;20224;-81
2022/03/17 05:43:42;;;;;;;31.83;20.53;;;12.90;78.20;;;;;;12915638;23;20194;-80
2022/03/17 05:48:44;;;;;;;20.43;15.67;;;13.20;76.80;;;;;;12932586;23;20220;-81
2022/03/17 05:53:47;;;;;;;28.53;20.20;;;12.80;78.20;;;;;;12915246;23;20189;-81
2022/03/17 05:58:49;;;;;;;44.47;29.37;;;13.00;77.30;;;;;;12913631;23;20170;-81
2022/03/17 06:03:53;;;;;;;22.10;16.70;;;13.20;77.20;;;;;;12935014;23;20166;-81
2022/03/17 06:08:55;;;;;;;20.23;15.67;;;13.60;76.40;;;;;;12935451;23;20208;-81
2022/03/17 06:13:59;;;;;;;39.87;26.20;;;13.90;75.40;;;;;;12916443;23;20208;-80
2022/03/17 06:19:02;;;;;;;27.97;19.50;;;13.90;74.60;;;;;;12934764;23;20541;-82
2022/03/17 06:24:05;;;;;;;45.50;30.53;;;13.80;74.90;;;;;;12915089;23;20575;-80
2022/03/17 06:29:07;;;;;;;33.43;23.13;;;13.50;75.40;;;;;;12917020;23;20498;-82
2022/03/17 06:34:10;;;;;;;50.17;32.37;;;13.90;73.20;;;;;;12914934;23;20163;-81
2022/03/17 06:39:12;;;;;;;53.70;31.37;;;13.80;71.30;;;;;;12915198;23;20170;-81
2022/03/17 06:44:14;;;;;;;23.07;16.57;;;13.40;75.00;;;;;;12915655;23;20194;-81
2022/03/17 06:49:17;;;;;;;24.13;17.13;;;13.20;76.70;;;;;;12913497;23;20174;-81
2022/03/17 06:54:19;;;;;;;24.83;18.10;;;14.00;74.70;;;;;;12917156;23;20163;-81
2022/03/17 06:59:22;;;;;;;29.83;21.13;;;14.50;73.00;;;;;;12938104;23;20228;-80
2022/03/17 07:04:25;;;;;;;27.30;18.77;;;14.90;71.50;;;;;;12918404;23;20171;-80
2022/03/17 07:09:27;;;;;;;24.20;17.60;;;14.90;71.30;;;;;;12937361;23;20178;-80
2022/03/17 07:14:30;;;;;;;62.90;29.00;;;14.90;71.20;;;;;;12919734;23;20170;-78
2022/03/17 07:19:33;;;;;;;106.37;51.70;;;14.70;69.70;;;;;;12918607;23;20163;-78
2022/03/17 07:24:35;;;;;;;123.17;49.07;;;14.90;66.90;;;;;;12919706;23;20197;-78
2022/03/17 07:29:39;;;;;;;128.60;50.70;;;14.90;66.60;;;;;;12918365;23;20507;-78
2022/03/17 07:34:42;;;;;;;91.73;47.47;;;14.90;66.40;;;;;;12919634;23;20167;-79
2022/03/17 07:39:46;;;;;;;80.17;49.60;;;14.40;68.00;;;;;;12937114;23;20216;-80
2022/03/17 07:44:49;;;;;;;79.33;47.27;;;14.80;65.90;;;;;;12919064;23;20661;-79
2022/03/17 07:50:11;;;;;;;73.50;45.73;;;15.10;65.60;;;;;;12940015;23;20399;-79
2022/03/17 07:55:13;;;;;;;71.17;44.00;;;15.50;65.00;;;;;;12917534;23;20485;-80
2022/03/17 08:00:16;;;;;;;68.03;40.83;;;15.70;64.70;;;;;;12917771;23;20481;-80
2022/03/17 08:05:19;;;;;;;66.10;44.17;;;15.80;64.60;;;;;;12915454;23;20716;-80
2022/03/17 08:10:22;;;;;;;66.93;41.43;;;15.90;64.00;;;;;;12917163;23;20190;-80
2022/03/17 08:15:26;;;;;;;63.10;40.43;;;15.90;61.60;;;;;;12915381;23;20171;-81
2022/03/17 08:20:30;;;;;;;78.20;51.40;;;15.60;64.30;;;;;;12918046;23;20167;-81
2022/03/17 08:25:33;;;;;;;52.37;34.47;;;15.60;60.50;;;;;;12916186;23;20171;-80
2022/03/17 08:30:37;;;;;;;57.50;35.83;;;;;;;;;;12915892;23;20182;-81
2022/03/17 08:35:40;;;;;;;54.03;34.47;;;15.70;62.40;;;;;;12915303;23;20197;-81
2022/03/17 08:40:43;;;;;;;57.30;35.53;;;16.10;65.50;;;;;;12914670;23;20645;-80
2022/03/17 08:51:10;;;;;;;58.43;36.07;;;16.30;64.90;;;;;;12917449;22;20277;-81
2022/03/17 08:56:12;;;;;;;58.83;38.60;;;15.60;65.00;;;;;;12916812;23;20166;-81
2022/03/17 09:01:15;;;;;;;64.63;39.57;;;15.50;62.60;;;;;;12914443;23;20181;-80
2022/03/17 09:06:18;;;;;;;45.20;30.20;;;15.90;63.70;;;;;;12915669;23;20264;-81
2022/03/17 09:11:21;;;;;;;60.37;40.10;;;16.20;65.10;;;;;;12914595;23;20191;-81
2022/03/17 09:16:23;;;;;;;56.80;37.27;;;16.20;60.30;;;;;;12915785;23;20170;-80
2022/03/17 09:21:27;;;;;;;50.67;31.87;;;15.30;58.80;;;;;;12915830;23;20190;-82
2022/03/17 09:26:31;;;;;;;61.00;38.83;;;15.00;66.00;;;;;;12916298;23;20217;-84
2022/03/17 09:31:33;;;;;;;54.07;33.17;;;15.00;59.20;;;;;;12915680;23;20183;-79
2022/03/17 09:36:36;;;;;;;48.93;32.43;;;15.40;63.10;;;;;;12915124;23;20562;-82
2022/03/17 09:41:39;;;;;;;52.77;34.97;;;15.80;62.20;;;;;;12913064;23;20182;-81
2022/03/17 09:46:43;;;;;;;57.40;32.70;;;16.00;58.00;;;;;;12915337;23;20198;-80
2022/03/17 09:51:50;;;;;;;57.20;31.80;;;16.10;58.00;;;;;;12915702;23;20189;-81
2022/03/17 09:56:56;;;;;;;49.43;30.27;;;15.90;57.90;;;;;;12933141;23;20629;-80
2022/03/17 10:01:59;;;;;;;47.13;28.30;;;16.10;58.70;;;;;;12914818;23;20178;-81
2022/03/17 10:07:02;;;;;;;40.33;27.77;;;16.20;57.40;;;;;;12886992;23;20178;-80
2022/03/17 10:12:12;;;;;;;40.40;26.57;;;15.90;59.30;;;;;;12889666;23;20572;-82
2022/03/17 10:17:31;;;;;;;37.03;25.20;;;16.40;59.00;;;;;;12921951;23;20230;-82
2022/03/17 10:22:50;;;;;;;35.73;23.87;;;16.40;58.90;;;;;;12916467;23;20173;-82
2022/03/17 10:27:56;;;;;;;39.67;23.67;;;15.90;58.10;;;;;;12934861;23;20170;-82
2022/03/17 10:33:04;;;;;;;40.93;24.87;;;16.00;58.60;;;;;;12923215;23;20291;-80
2022/03/17 10:38:14;;;;;;;35.37;23.07;;;15.50;53.80;;;;;;12917301;23;20200;-81
2022/03/17 10:43:23;;;;;;;39.53;24.07;;;16.20;56.50;;;;;;12934479;23;20237;-80
2022/03/17 10:48:25;;;;;;;37.73;23.63;;;16.40;56.20;;;;;;12921344;23;20224;-80
2022/03/17 10:53:29;;;;;;;37.13;21.43;;;16.30;52.70;;;;;;12918673;23;20191;-81
2022/03/17 10:58:41;;;;;;;35.47;21.50;;;16.10;56.30;;;;;;12916082;23;20166;-80
2022/03/17 11:04:05;;;;;;;29.27;19.33;;;16.50;56.10;;;;;;12935418;23;20217;-81
2022/03/17 11:09:08;;;;;;;30.43;21.33;;;16.70;55.30;;;;;;12935511;23;20688;-81
2022/03/17 11:14:13;;;;;;;29.13;19.60;;;16.70;54.50;;;;;;12890451;23;20742;-81
2022/03/17 11:19:17;;;;;;;31.87;19.57;;;16.70;56.50;;;;;;12937073;23;20210;-81
2022/03/17 11:24:21;;;;;;;30.03;20.00;;;16.70;55.70;;;;;;12917055;23;20170;-82
2022/03/17 11:29:25;;;;;;;28.40;18.80;;;16.30;56.60;;;;;;12918294;23;20244;-82
2022/03/17 11:34:46;;;;;;;27.60;17.90;;;16.50;56.80;;;;;;12918715;23;20242;-81
2022/03/17 11:40:04;;;;;;;29.80;19.50;;;16.60;57.10;;;;;;12934051;23;20166;-81
2022/03/17 11:45:15;;;;;;;24.23;17.77;;;16.60;56.80;;;;;;12915044;23;20249;-81
2022/03/17 11:50:28;;;;;;;27.70;17.60;;;16.60;57.80;;;;;;12936431;23;20166;-83
2022/03/17 11:55:37;;;;;;;31.43;19.47;;;16.30;56.80;;;;;;12935836;23;20273;-83
2022/03/17 12:00:49;;;;;;;24.80;17.60;;;16.50;56.00;;;;;;12927617;23;20232;-81
2022/03/17 12:06:09;;;;;;;23.43;16.93;;;16.40;58.30;;;;;;12931047;23;20175;-80
2022/03/17 12:11:13;;;;;;;22.47;15.80;;;16.10;57.70;;;;;;12932691;23;20200;-80
2022/03/17 12:16:39;;;;;;;27.33;17.47;;;15.90;59.40;;;;;;12916489;23;20193;-82
2022/03/17 12:21:57;;;;;;;26.57;18.53;;;16.20;59.30;;;;;;12917053;23;20182;-81
2022/03/17 12:27:28;;;;;;;23.53;16.87;;;16.10;58.20;;;;;;12916712;23;20177;-80
2022/03/17 12:32:34;;;;;;;22.27;16.07;;;16.20;59.00;;;;;;12912847;23;20186;-81
2022/03/17 12:37:39;;;;;;;19.77;15.33;;;16.30;59.30;;;;;;12916200;23;20224;-81
2022/03/17 12:42:47;;;;;;;21.27;15.20;;;16.40;59.20;;;;;;12916447;23;20202;-81
2022/03/17 12:47:56;;;;;;;21.17;15.97;;;16.30;59.30;;;;;;12919021;23;20174;-80
2022/03/17 12:52:59;;;;;;;21.87;14.93;;;16.40;59.40;;;;;;12919730;23;20201;-80
2022/03/17 12:58:04;;;;;;;24.83;16.10;;;16.30;59.40;;;;;;12918234;23;20188;-81
2022/03/17 13:03:06;;;;;;;26.07;15.53;;;15.80;55.10;;;;;;12918463;23;20174;-81
2022/03/17 13:08:11;;;;;;;19.50;15.13;;;16.10;58.10;;;;;;12917583;23;20709;-81
2022/03/17 13:18:45;;;;;;;18.50;14.03;;;15.90;58.40;;;;;;12921434;23;20617;-80
2022/03/17 13:23:48;;;;;;;16.83;13.97;;;15.70;57.40;;;;;;12917613;23;20465;-81
2022/03/17 13:29:03;;;;;;;20.03;13.67;;;15.90;59.50;;;;;;12916057;23;20179;-81
2022/03/17 13:34:07;;;;;;;23.10;14.07;;;16.20;60.00;;;;;;12918263;23;20190;-81
2022/03/17 13:39:10;;;;;;;22.17;15.40;;;16.20;59.60;;;;;;12917887;23;20474;-80
2022/03/17 13:44:13;;;;;;;19.97;13.53;;;16.30;58.10;;;;;;12913911;23;20534;-81
2022/03/17 13:49:16;;;;;;;16.43;13.83;;;16.30;59.80;;;;;;12914074;23;20176;-81
2022/03/17 13:54:19;;;;;;;17.60;13.93;;;16.30;59.80;;;;;;12917145;23;20193;-81
2022/03/17 13:59:22;;;;;;;17.17;12.73;;;16.30;59.80;;;;;;12916891;23;20502;-80
2022/03/17 14:04:28;;;;;;;17.73;13.60;;;16.30;60.00;;;;;;12936006;23;20640;-81
2022/03/17 14:09:31;;;;;;;18.10;12.23;;;16.20;60.20;;;;;;12919648;22;20565;-81
2022/03/17 14:14:36;;;;;;;17.13;12.87;;;16.20;60.10;;;;;;12918643;23;20213;-80
2022/03/17 14:19:38;;;;;;;17.47;13.10;;;15.80;59.90;;;;;;12920473;23;20237;-81
2022/03/17 14:24:42;;;;;;;17.10;12.63;;;16.10;58.30;;;;;;12918121;23;20247;-81
2022/03/17 14:29:46;;;;;;;16.13;12.23;;;15.90;60.80;;;;;;12920263;23;20521;-81
2022/03/17 14:34:50;;;;;;;28.23;17.67;;;16.00;60.70;;;;;;12918488;23;20732;-81
2022/03/17 14:39:52;;;;;;;16.30;12.77;;;15.90;60.50;;;;;;12918806;23;20166;-78
2022/03/17 14:44:54;;;;;;;15.77;12.50;;;15.70;61.10;;;;;;12917813;23;20513;-78
2022/03/17 14:49:57;;;;;;;17.00;12.67;;;15.90;61.00;;;;;;12916836;23;20178;-79
2022/03/17 14:54:59;;;;;;;22.13;13.77;;;15.90;61.00;;;;;;12917706;23;20190;-78
2022/03/17 15:00:03;;;;;;;29.27;16.00;;;15.70;58.10;;;;;;12919117;23;20197;-78
2022/03/17 15:05:06;;;;;;;28.43;15.80;;;15.60;57.40;;;;;;12916376;23;20174;-78
2022/03/17 15:10:10;;;;;;;31.27;16.63;;;15.50;56.70;;;;;;12935541;23;20196;-78
2022/03/17 15:15:12;;;;;;;28.00;19.30;;;15.30;56.70;;;;;;12916085;23;20240;-78
2022/03/17 15:20:15;;;;;;;31.37;17.27;;;15.00;56.40;;;;;;12918865;23;20193;-78
2022/03/17 15:25:20;;;;;;;30.53;16.30;;;14.80;57.80;;;;;;12917684;23;20170;-78
2022/03/17 15:30:23;;;;;;;23.10;15.07;;;14.90;57.90;;;;;;12893083;23;20182;-78
2022/03/17 15:35:25;;;;;;;21.00;14.37;;;14.70;58.60;;;;;;12918020;23;20257;-78
2022/03/17 15:40:31;;;;;;;45.40;16.27;;;14.90;58.90;;;;;;12919064;23;20545;-79
2022/03/17 15:45:42;;;;;;;52.27;18.30;;;15.00;58.50;;;;;;12912655;23;20206;-78
2022/03/17 15:50:49;;;;;;;46.77;20.47;;;15.00;56.50;;;;;;12917461;23;20889;-79
2022/03/17 15:55:54;;;;;;;37.90;17.47;;;15.20;56.40;;;;;;12935421;23;20240;-79
2022/03/17 16:00:56;;;;;;;37.80;16.43;;;15.60;56.30;;;;;;12916107;23;20508;-78
2022/03/17 16:05:59;;;;;;;27.07;16.83;;;15.90;56.20;;;;;;12917269;22;20695;-78
2022/03/17 16:16:25;;;;;;;29.00;15.83;;;16.40;55.90;;;;;;12914599;23;20517;-78
2022/03/17 16:21:27;;;;;;;26.83;15.53;;;16.50;55.90;;;;;;12918002;23;20221;-79
2022/03/17 16:26:30;;;;;;;28.40;15.70;;;16.70;55.80;;;;;;12914659;23;20172;-79
2022/03/17 16:31:32;;;;;;;27.70;14.70;;;16.70;56.10;;;;;;12916568;23;20252;-80
2022/03/17 16:36:35;;;;;;;24.00;14.83;;;16.70;56.10;;;;;;12915016;23;20166;-80
2022/03/17 16:41:38;;;;;;;22.60;14.83;;;16.70;56.40;;;;;;12935637;23;20232;-79
2022/03/17 16:46:40;;;;;;;23.57;14.13;;;16.60;56.80;;;;;;12916637;23;20190;-79
2022/03/17 16:51:43;;;;;;;21.57;13.63;;;16.50;57.30;;;;;;12916006;23;20236;-79
2022/03/17 16:56:45;;;;;;;19.67;13.73;;;16.50;57.40;;;;;;12914014;22;20694;-80
2022/03/17 17:01:48;;;;;;;18.73;13.07;;;16.50;57.70;;;;;;12910819;23;20174;-82
2022/03/17 17:06:51;;;;;;;18.10;13.53;;;16.40;58.00;;;;;;12913785;23;20236;-79
2022/03/17 17:11:53;;;;;;;24.93;16.77;;;16.30;58.10;;;;;;12913751;23;20717;-79
2022/03/17 17:16:57;;;;;;;21.30;13.40;;;16.30;57.20;;;;;;12915772;23;20244;-79
2022/03/17 17:22:01;;;;;;;22.60;13.20;;;16.50;58.30;;;;;;12913122;23;20220;-79
2022/03/17 17:32:27;;;;;;;25.93;15.17;;;16.20;55.70;;;;;;12924308;23;20234;-78
2022/03/17 17:37:31;;;;;;;24.13;16.33;;;16.00;58.40;;;;;;12914623;23;20163;-79
2022/03/17 17:42:34;;;;;;;41.27;25.00;;;15.50;60.10;;;;;;12916191;22;20265;-78
2022/03/17 17:47:39;;;;;;;19.60;12.70;;;14.90;56.20;;;;;;12914412;23;20664;-79
2022/03/17 17:52:44;;;;;;;18.33;12.93;;;15.10;61.90;;;;;;12914244;23;20189;-78
2022/03/17 17:57:48;;;;;;;29.93;17.30;;;15.20;61.60;;;;;;12913654;23;20552;-79
2022/03/17 18:02:50;;;;;;;20.20;14.13;;;14.60;61.20;;;;;;12914627;23;20235;-79
2022/03/17 18:07:53;;;;;;;19.13;13.23;;;14.30;63.70;;;;;;12916246;23;20224;-80
2022/03/17 18:12:56;;;;;;;15.63;11.30;;;14.20;64.40;;;;;;12916279;23;20719;-79
2022/03/17 18:18:02;;;;;;;15.27;11.10;;;14.50;64.40;;;;;;12913403;23;20181;-83
2022/03/17 18:23:06;;;;;;;19.90;12.13;;;15.00;63.30;;;;;;12911835;23;20178;-83
2022/03/17 18:28:09;;;;;;;16.90;11.67;;;15.40;62.30;;;;;;12912268;23;20172;-82
2022/03/17 18:33:12;;;;;;;16.93;11.83;;;15.60;61.80;;;;;;12914764;23;20236;-82
2022/03/17 18:38:15;;;;;;;20.23;12.33;;;15.70;61.50;;;;;;12914877;23;20220;-79
2022/03/17 18:43:17;;;;;;;18.00;11.40;;;15.80;61.10;;;;;;12934708;22;20194;-79
2022/03/17 18:48:20;;;;;;;19.43;12.43;;;15.60;61.40;;;;;;12916100;23;20177;-78
2022/03/17 18:53:23;;;;;;;16.43;11.67;;;15.70;62.10;;;;;;12918041;23;20202;-78
2022/03/17 18:58:25;;;;;;;19.27;12.63;;;15.80;61.20;;;;;;12890062;23;20204;-81
2022/03/17 19:03:27;;;;;;;21.73;11.93;;;16.00;60.80;;;;;;12887834;23;20240;-81
2022/03/17 19:08:30;;;;;;;18.93;12.37;;;16.10;60.70;;;;;;12888195;23;20205;-81
2022/03/17 19:13:37;;;;;;;19.83;12.43;;;16.10;60.60;;;;;;12912999;23;20632;-81
2022/03/17 19:18:43;;;;;;;18.07;11.50;;;16.10;60.50;;;;;;12911764;23;20626;-81
2022/03/17 19:23:45;;;;;;;16.57;12.17;;;16.10;60.60;;;;;;12913421;23;20171;-83
2022/03/17 19:28:48;;;;;;;16.77;11.27;;;15.90;61.00;;;;;;12914825;23;20225;-81
2022/03/17 19:33:51;;;;;;;16.80;11.97;;;15.90;61.00;;;;;;12913977;23;20219;-80
2022/03/17 19:38:53;;;;;;;33.90;18.40;;;15.90;61.10;;;;;;12915023;23;20173;-81
2022/03/17 19:43:56;;;;;;;19.43;12.93;;;15.50;61.40;;;;;;12919227;23;20194;-81
2022/03/17 19:49:05;;;;;;;26.27;14.43;;;15.20;62.50;;;;;;12920829;23;20240;-80
2022/03/17 19:54:09;;;;;;;32.17;19.30;;;14.80;62.80;;;;;;12917658;23;20237;-80
2022/03/17 19:59:12;;;;;;;24.60;16.53;;;14.50;62.80;;;;;;12918326;23;20168;-81
2022/03/17 20:04:14;;;;;;;31.10;17.07;;;14.10;64.90;;;;;;12915756;23;20239;-81
2022/03/17 20:09:17;;;;;;;16.83;11.73;;;14.50;64.50;;;;;;12935725;23;20170;-81
2022/03/17 20:14:19;;;;;;;26.00;14.90;;;14.30;65.00;;;;;;12916500;23;20731;-81
2022/03/17 20:19:22;;;;;;;19.57;14.17;;;14.20;65.10;;;;;;12916261;23;20233;-84
2022/03/17 20:24:24;;;;;;;21.33;13.60;;;14.10;65.60;;;;;;12916537;23;20167;-82
2022/03/17 20:29:27;;;;;;;25.73;16.77;;;13.90;65.40;;;;;;12917871;23;20169;-81
2022/03/17 20:34:37;;;;;;;18.20;12.80;;;13.40;65.60;;;;;;12916192;23;20641;-81
2022/03/17 20:39:40;;;;;;;21.67;13.63;;;13.50;67.60;;;;;;12916455;23;20176;-81
2022/03/17 20:44:42;;;;;;;19.03;11.70;;;14.00;66.60;;;;;;12917866;23;20758;-81
2022/03/17 20:49:45;;;;;;;18.83;12.07;;;14.10;66.30;;;;;;12930443;23;20568;-81
2022/03/17 20:54:47;;;;;;;29.33;18.33;;;14.00;66.10;;;;;;12914690;23;20543;-80
2022/03/17 20:59:49;;;;;;;27.10;17.37;;;14.00;66.00;;;;;;12917428;23;20193;-80
2022/03/17 21:04:52;;;;;;;17.80;12.57;;;14.00;65.80;;;;;;12936318;23;20192;-79
2022/03/17 21:09:55;;;;;;;26.80;16.53;;;14.10;66.10;;;;;;12917780;23;20169;-80
2022/03/17 21:14:58;;;;;;;18.73;12.87;;;14.30;65.50;;;;;;12933766;22;20187;-80
2022/03/17 21:20:07;;;;;;;19.60;13.07;;;14.60;65.10;;;;;;12912145;23;20171;-80
2022/03/17 21:25:11;;;;;;;17.27;12.40;;;15.00;63.90;;;;;;12932793;23;20245;-80
2022/03/17 21:30:13;;;;;;;22.03;13.80;;;15.20;63.20;;;;;;12911404;23;20228;-80
2022/03/17 21:35:16;;;;;;;16.40;12.53;;;15.60;62.40;;;;;;12934323;23;20233;-80
2022/03/17 21:40:19;;;;;;;19.47;13.20;;;15.60;62.40;;;;;;12915426;23;20166;-81
2022/03/17 21:45:21;;;;;;;17.67;12.23;;;15.60;62.40;;;;;;12916501;23;20736;-80
2022/03/17 21:50:24;;;;;;;21.30;13.53;;;15.40;62.70;;;;;;12916302;23;20174;-80
2022/03/17 21:55:26;;;;;;;18.17;13.37;;;15.40;62.50;;;;;;12915028;22;20240;-80
2022/03/17 22:00:29;;;;;;;22.60;13.70;;;15.40;62.40;;;;;;12911789;23;20167;-81
2022/03/17 22:05:32;;;;;;;20.67;12.87;;;15.40;62.60;;;;;;12911135;23;20170;-81
2022/03/17 22:10:35;;;;;;;16.53;12.47;;;15.40;62.40;;;;;;12912803;23;20174;-80
2022/03/17 22:15:38;;;;;;;17.33;12.00;;;15.30;62.40;;;;;;12912825;23;20207;-80
2022/03/17 22:20:41;;;;;;;18.53;12.77;;;15.30;62.50;;;;;;12909956;23;20167;-80
2022/03/17 22:25:44;;;;;;;19.43;14.30;;;15.40;62.30;;;;;;12914632;23;20730;-80
2022/03/17 22:30:46;;;;;;;17.87;12.90;;;15.40;62.20;;;;;;12917042;23;20240;-81
2022/03/17 22:35:49;;;;;;;19.03;12.40;;;15.00;62.70;;;;;;12917430;23;20909;-80
2022/03/17 22:46:13;;;;;;;19.33;12.80;;;15.00;63.30;;;;;;12920077;23;20847;-80
2022/03/17 22:51:15;;;;;;;19.30;12.90;;;14.90;63.40;;;;;;12913653;23;20226;-80
2022/03/17 22:56:18;;;;;;;21.97;13.77;;;15.20;62.90;;;;;;12912676;23;20198;-80
2022/03/17 23:01:22;;;;;;;18.53;12.17;;;15.10;62.90;;;;;;12928325;23;20170;-80
2022/03/17 23:06:25;;;;;;;32.73;19.63;;;15.00;63.20;;;;;;12914175;23;20237;-80
2022/03/17 23:11:28;;;;;;;18.20;11.43;;;14.80;61.80;;;;;;12913898;23;20166;-80
2022/03/17 23:16:31;;;;;;;16.97;12.27;;;14.40;64.30;;;;;;12914646;23;20185;-80
2022/03/17 23:21:36;;;;;;;19.17;13.77;;;14.70;64.20;;;;;;12914254;23;20162;-79
2022/03/17 23:26:39;;;;;;;21.13;13.17;;;14.90;63.60;;;;;;12915293;23;20201;-83
2022/03/17 23:31:43;;;;;;;18.07;12.53;;;15.00;63.10;;;;;;12917958;23;20174;-82
2022/03/17 23:36:48;;;;;;;21.13;13.73;;;15.10;63.10;;;;;;12937219;23;20186;-82
2022/03/17 23:41:50;;;;;;;21.57;13.70;;;15.00;63.20;;;;;;12937617;23;20158;-82
2022/03/17 23:46:53;;;;;;;21.53;12.50;;;15.10;62.90;;;;;;12918438;23;20194;-84
2022/03/17 23:57:18;;;;;;;16.23;11.77;;;14.70;63.60;;;;;;12935488;23;20191;-82
